Talihina, Oklahoma
Current Conditions -  °F | °C
As of 4:35 AM on Sunday 26 Oct 2014 (Local Time) from KRKR Reporting Station
Clear Clear  
Wind Chill: 60°   Ceiling: Unl
Heat Index: 60°   Visibility: 7mi
Dew Point: 58°   Wind: 5mph
Humidity: 93%   Direction: 200°SSW
Pressure: 29.99"   Gusts: NA
Location:  34.75°N, 95.05°W
Report Text: KRKR 260935Z AUTO 20004KT 7SM CLR 15/14 A2999 RMK AO2 T01540142
Loading
Personal Weather Stations






























Interactive Weather Map
Tropical Storm Tracking
New forecast layout! Learn more

10-Day Weather Forecast

Advertisements
Track Severe Weather on mobile